Terminal Aerodrome Forecast
Issued by NWS Charleston, WV

Current Version | Previous Version | Graphics & Text | Print | Product List | Glossary On
Versions: 1 2 3 4 5 6 7 8 9 10 11 12 13 14 15 16 17 18 19 20 21 22 23 24 25
000
FTUS41 KRLX 070944 AAB
TAFHTS
TAF AMD
KHTS 070944Z 0710/0806 32007KT P6SM SCT015 OVC025
      TEMPO 0710/0713 SCT025
     FM071300 VRB03KT P6SM OVC025
      TEMPO 0713/0717 BKN015
     FM071800 VRB03KT P6SM SCT025
     FM080400 00000KT P6SM BKN110=

USA.gov is the U.S. government's official web portal to all federal, state and local government web resources and services.